Adams, Illinois
Current Conditions -  °F | °C
As of 4:54 PM on Wednesday 22 Oct 2014 (Local Time) from KUIN Reporting Station
Clear Clear  
Wind Chill: 16°   Ceiling: Unl
Heat Index: 16°   Visibility: 10mi
Dew Point:   Wind: 12mph
Humidity: 44%   Direction: 130°SE
Pressure: 30.2"   Gusts: NA
Location:  39.8875°N, 91.0352°W
Report Text: KUIN 222154Z AUTO 13010KT 10SM CLR 16/04 A3020 RMK AO2 SLP226 T01610039
Loading
Personal Weather Stations






























Interactive Weather Map
Tropical Storm Tracking
New forecast layout! Learn more

10-Day Weather Forecast

Advertisements
Track Severe Weather on mobile